createdAt,value
2023-04-09T00:01:09.935Z,90.74
2023-04-09T00:03:39.044Z,90.62
2023-04-09T00:06:12.499Z,91.37
2023-04-09T00:08:42.086Z,90.73
2023-04-09T00:11:10.397Z,90.93
2023-04-09T00:13:39.845Z,92.16
2023-04-09T00:16:10.309Z,92.14
2023-04-09T00:18:38.530Z,92.24
2023-04-09T00:21:08.476Z,91.88
2023-04-09T00:23:36.930Z,91.94
2023-04-09T00:26:05.441Z,91.36
2023-04-09T00:28:33.612Z,91.70
2023-04-09T00:31:01.854Z,91.94
2023-04-09T00:33:31.500Z,91.58
2023-04-09T00:35:59.779Z,92.35
2023-04-09T00:38:28.151Z,92.65
2023-04-09T00:40:56.404Z,91.90
2023-04-09T00:43:24.605Z,92.83
2023-04-09T00:45:53.049Z,92.60
2023-04-09T00:48:21.944Z,93.11
2023-04-09T00:50:51.552Z,93.26
2023-04-09T00:53:19.940Z,93.97
2023-04-09T00:55:48.279Z,92.97
2023-04-09T00:58:17.099Z,93.12
2023-04-09T01:00:45.326Z,93.29
2023-04-09T01:03:13.996Z,92.86
2023-04-09T01:05:54.889Z,93.27
2023-04-09T01:08:36.151Z,92.79
2023-04-09T01:11:12.550Z,92.95
2023-04-09T01:13:48.754Z,92.53
2023-04-09T01:16:19.897Z,93.38
2023-04-09T01:18:54.495Z,93.29
2023-04-09T01:21:32.572Z,93.66
2023-04-09T01:24:16.844Z,93.79
2023-04-09T01:26:58.602Z,94.56
2023-04-09T01:29:40.130Z,94.02
2023-04-09T01:32:10.545Z,94.14
2023-04-09T01:34:39.641Z,93.68
2023-04-09T01:37:09.627Z,93.93
2023-04-09T01:39:39.684Z,94.41
2023-04-09T01:42:11.243Z,95.22
2023-04-09T01:44:41.975Z,94.96
2023-04-09T01:47:10.676Z,94.73
2023-04-09T01:49:41.288Z,94.22
2023-04-09T01:52:10.105Z,94.90
2023-04-09T01:54:38.380Z,94.63
2023-04-09T01:57:06.697Z,94.56
2023-04-09T01:59:34.952Z,94.50
2023-04-09T02:02:12.117Z,94.39
2023-04-09T02:04:45.658Z,94.60
2023-04-09T02:07:26.278Z,94.88
2023-04-09T02:09:55.673Z,94.35
2023-04-09T02:12:26.035Z,94.50
2023-04-09T02:14:55.880Z,95.05
2023-04-09T02:17:25.578Z,94.32
2023-04-09T02:19:53.834Z,94.66
2023-04-09T02:22:22.197Z,94.75
2023-04-09T02:24:50.403Z,93.57
2023-04-09T02:27:18.995Z,94.56
2023-04-09T02:29:47.424Z,94.54
2023-04-09T02:32:16.334Z,95.14
2023-04-09T02:34:47.478Z,95.72
2023-04-09T02:37:15.715Z,95.33
2023-04-09T02:39:43.934Z,94.68
2023-04-09T02:42:12.095Z,95.71
2023-04-09T02:44:40.333Z,95.31
2023-04-09T02:47:08.484Z,95.35
2023-04-09T02:49:38.822Z,95.24
2023-04-09T02:52:08.569Z,95.42
2023-04-09T02:54:36.724Z,94.88
2023-04-09T02:57:05.605Z,95.37
2023-04-09T02:59:35.770Z,95.09
2023-04-09T03:02:04.135Z,95.13
2023-04-09T03:04:32.490Z,94.97
2023-04-09T03:07:00.683Z,94.67
2023-04-09T03:09:30.778Z,95.38
2023-04-09T03:11:59.037Z,94.99
2023-04-09T03:14:27.264Z,94.36
2023-04-09T03:16:55.801Z,94.52
2023-04-09T03:19:23.996Z,93.15
2023-04-09T03:21:52.283Z,93.19
2023-04-09T03:24:25.581Z,93.04
2023-04-09T03:26:56.168Z,93.16
2023-04-09T03:29:24.670Z,92.36
2023-04-09T03:31:52.968Z,92.73
2023-04-09T03:34:21.467Z,92.68
2023-04-09T03:36:53.964Z,92.85
2023-04-09T03:39:30.795Z,91.91
2023-04-09T03:42:01.792Z,92.09
2023-04-09T03:44:40.866Z,92.57
2023-04-09T03:47:12.178Z,92.61
2023-04-09T03:49:40.993Z,92.39
2023-04-09T03:52:17.947Z,92.10
2023-04-09T03:54:52.680Z,92.15
2023-04-09T03:57:26.104Z,91.74
2023-04-09T03:59:55.892Z,91.71
2023-04-09T04:02:27.170Z,91.85
2023-04-09T04:07:56.109Z,91.58
2023-04-09T04:10:28.930Z,91.66
2023-04-09T04:12:58.496Z,92.93
2023-04-09T04:15:33.441Z,92.40
2023-04-09T04:18:01.700Z,91.92
2023-04-09T04:20:40.666Z,91.58
2023-04-09T04:23:13.283Z,92.01
2023-04-09T04:25:50.260Z,92.13
2023-04-09T04:28:26.918Z,92.63
2023-04-09T04:30:55.717Z,91.32
2023-04-09T04:33:24.020Z,90.62
2023-04-09T04:35:55.170Z,91.13
2023-04-09T04:38:58.697Z,90.78
2023-04-09T04:41:48.197Z,90.56
2023-04-09T04:44:23.253Z,91.02
2023-04-09T04:46:59.201Z,89.95
2023-04-09T04:49:27.837Z,90.94
2023-04-09T04:51:56.400Z,90.28
2023-04-09T04:54:25.433Z,89.18
2023-04-09T04:56:57.204Z,89.19
2023-04-09T04:59:38.639Z,89.15
2023-04-09T05:02:08.279Z,89.26
2023-04-09T05:04:54.915Z,88.64
2023-04-09T05:07:30.865Z,88.00
2023-04-09T05:09:59.711Z,89.04
2023-04-09T05:12:32.870Z,88.29
2023-04-09T05:15:03.439Z,88.48
2023-04-09T05:17:32.133Z,88.73
2023-04-09T05:20:01.271Z,88.10
2023-04-09T05:22:38.177Z,88.22
2023-04-09T05:25:08.518Z,88.84
2023-04-09T05:27:39.892Z,87.41
2023-04-09T05:30:11.325Z,87.90
2023-04-09T05:32:40.716Z,87.36
2023-04-09T05:35:09.808Z,87.71
2023-04-09T05:37:41.901Z,88.59
2023-04-09T05:40:12.235Z,88.00
2023-04-09T05:42:41.905Z,88.12
2023-04-09T05:45:17.366Z,87.18
2023-04-09T05:47:52.869Z,87.97
2023-04-09T05:50:24.039Z,87.26
2023-04-09T05:52:55.309Z,87.20
2023-04-09T05:55:29.329Z,87.54
2023-04-09T05:58:02.086Z,86.61
2023-04-09T06:00:31.910Z,87.20
2023-04-09T06:03:00.140Z,86.43
2023-04-09T06:05:29.538Z,86.46
2023-04-09T06:07:57.740Z,86.95
2023-04-09T06:10:26.293Z,86.64
2023-04-09T06:12:54.525Z,85.19
2023-04-09T06:15:22.747Z,85.62
2023-04-09T06:17:52.304Z,85.24
2023-04-09T06:20:21.241Z,85.12
2023-04-09T06:22:49.454Z,84.80
2023-04-09T06:25:18.052Z,83.61
2023-04-09T06:27:46.621Z,83.58
2023-04-09T06:30:15.001Z,82.47
2023-04-09T06:32:53.167Z,83.52
2023-04-09T06:35:23.771Z,82.76
2023-04-09T06:37:52.013Z,82.74
2023-04-09T06:40:23.021Z,82.67
2023-04-09T06:42:51.952Z,83.38
2023-04-09T06:45:29.445Z,82.36
2023-04-09T06:47:58.068Z,82.82
2023-04-09T06:50:28.064Z,82.51
2023-04-09T06:52:56.542Z,82.03
2023-04-09T06:55:26.862Z,82.19
2023-04-09T06:57:55.062Z,81.07
2023-04-09T07:00:24.036Z,80.64
2023-04-09T07:02:53.525Z,81.39
2023-04-09T07:05:22.665Z,79.90
2023-04-09T07:07:52.423Z,80.62
2023-04-09T07:10:21.171Z,81.07
2023-04-09T07:12:49.481Z,80.86
2023-04-09T07:15:17.667Z,78.57
2023-04-09T07:17:46.019Z,77.78
2023-04-09T07:20:14.459Z,75.99
2023-04-09T07:22:42.626Z,76.53
2023-04-09T07:25:12.245Z,76.95
2023-04-09T07:27:40.473Z,76.50
2023-04-09T07:30:10.670Z,77.92
2023-04-09T07:32:39.019Z,75.96
2023-04-09T07:35:11.318Z,76.36
2023-04-09T07:37:40.108Z,77.46
2023-04-09T07:40:11.553Z,75.45
2023-04-09T07:42:39.983Z,74.71
2023-04-09T07:45:09.562Z,76.11
2023-04-09T07:47:40.796Z,75.71
2023-04-09T07:50:10.762Z,75.12
2023-04-09T07:52:39.076Z,74.66
2023-04-09T07:55:08.138Z,74.45
2023-04-09T07:57:37.857Z,74.07
2023-04-09T08:00:08.370Z,75.19
2023-04-09T08:02:45.154Z,73.94
2023-04-09T08:05:13.942Z,73.84
2023-04-09T08:07:42.137Z,73.88
2023-04-09T08:10:15.134Z,70.48
2023-04-09T08:12:44.941Z,70.35
2023-04-09T08:15:13.265Z,70.59
2023-04-09T08:17:41.540Z,69.58
2023-04-09T08:20:11.370Z,69.18
2023-04-09T08:22:41.146Z,68.49
2023-04-09T08:25:09.838Z,68.88
2023-04-09T08:27:39.620Z,70.66
2023-04-09T08:30:11.218Z,68.90
2023-04-09T08:32:39.407Z,68.46
2023-04-09T08:35:09.158Z,68.14
2023-04-09T08:37:37.341Z,69.49
2023-04-09T08:40:06.772Z,67.98
2023-04-09T08:42:37.459Z,67.20
2023-04-09T08:45:08.795Z,66.75
2023-04-09T08:47:38.147Z,67.70
2023-04-09T08:50:07.549Z,67.19
2023-04-09T08:52:36.507Z,65.54
2023-04-09T08:55:05.302Z,65.39
2023-04-09T08:57:39.374Z,66.35
2023-04-09T09:00:10.706Z,64.20
2023-04-09T09:02:39.438Z,64.59
2023-04-09T09:05:08.742Z,64.86
2023-04-09T09:07:36.937Z,64.34
2023-04-09T09:10:05.731Z,62.53
2023-04-09T09:12:36.746Z,62.73
2023-04-09T09:15:06.291Z,61.94
2023-04-09T09:17:54.795Z,62.14
2023-04-09T09:20:24.156Z,62.31
2023-04-09T09:22:55.508Z,60.98
2023-04-09T09:25:25.854Z,60.30
2023-04-09T09:27:55.443Z,62.23
2023-04-09T09:30:25.991Z,61.20
2023-04-09T09:32:57.486Z,60.00
2023-04-09T09:35:25.711Z,56.61
2023-04-09T09:38:05.382Z,57.81
2023-04-09T09:40:33.784Z,57.42
2023-04-09T09:43:01.945Z,56.87
2023-04-09T09:45:31.446Z,57.09
2023-04-09T09:48:01.626Z,55.62
2023-04-09T09:50:33.063Z,56.92
2023-04-09T09:53:05.953Z,56.57
2023-04-09T09:55:36.117Z,57.85
2023-04-09T09:58:12.059Z,57.13
2023-04-09T10:00:42.365Z,56.24
2023-04-09T10:03:17.050Z,55.80
2023-04-09T10:05:46.516Z,58.75
2023-04-09T10:08:14.874Z,55.88
2023-04-09T10:10:43.425Z,54.86
2023-04-09T10:13:26.944Z,54.84
2023-04-09T10:15:55.807Z,56.95
2023-04-09T10:18:25.525Z,55.65
2023-04-09T10:21:01.079Z,56.30
2023-04-09T10:23:39.859Z,55.87
2023-04-09T10:26:08.498Z,53.24
2023-04-09T10:28:39.235Z,53.81
2023-04-09T10:31:08.837Z,54.08
2023-04-09T10:33:40.107Z,56.15
2023-04-09T10:36:13.475Z,55.64
2023-04-09T10:38:47.027Z,57.57
2023-04-09T10:41:23.061Z,54.07
2023-04-09T10:43:52.241Z,55.47
2023-04-09T10:46:28.460Z,54.43
2023-04-09T10:49:16.406Z,52.55
2023-04-09T10:51:53.594Z,53.03
2023-04-09T10:54:46.317Z,54.46
2023-04-09T10:57:23.004Z,54.86
2023-04-09T10:59:53.349Z,53.70
2023-04-09T11:03:15.038Z,54.53
2023-04-09T11:05:45.938Z,53.90
2023-04-09T11:08:15.990Z,54.80
2023-04-09T11:10:49.025Z,53.64
2023-04-09T11:13:20.013Z,54.08
2023-04-09T11:15:49.371Z,55.22
2023-04-09T11:18:22.063Z,54.95
2023-04-09T11:20:52.248Z,54.00
2023-04-09T11:23:20.812Z,54.37
2023-04-09T11:25:51.806Z,53.25
2023-04-09T11:28:22.039Z,54.41
2023-04-09T11:30:52.763Z,54.33
2023-04-09T11:33:21.413Z,53.65
2023-04-09T11:35:52.165Z,53.07
2023-04-09T11:38:20.555Z,52.61
2023-04-09T11:40:49.545Z,50.11
2023-04-09T11:43:20.717Z,50.70
2023-04-09T11:45:49.358Z,50.93
2023-04-09T11:48:19.158Z,50.36
2023-04-09T11:50:47.814Z,50.12
2023-04-09T11:53:22.061Z,51.46
2023-04-09T11:55:52.917Z,51.44
2023-04-09T11:58:25.045Z,52.44
2023-04-09T12:00:56.175Z,51.91
2023-04-09T12:03:33.725Z,52.64
2023-04-09T12:06:22.850Z,51.97
2023-04-09T12:08:55.598Z,52.66
2023-04-09T12:11:29.849Z,51.71
2023-04-09T12:14:01.335Z,51.49
2023-04-09T12:16:32.320Z,51.39
2023-04-09T12:19:02.612Z,51.92
2023-04-09T12:21:49.396Z,54.51
2023-04-09T12:24:21.660Z,53.08
2023-04-09T12:26:50.421Z,54.22
2023-04-09T12:29:21.588Z,52.41
2023-04-09T12:31:49.891Z,52.86
2023-04-09T12:34:18.257Z,54.95
2023-04-09T12:36:46.514Z,52.71
2023-04-09T12:39:14.701Z,52.51
2023-04-09T12:41:44.824Z,53.64
2023-04-09T12:44:13.172Z,52.89
2023-04-09T12:46:41.493Z,51.39
2023-04-09T12:49:09.702Z,52.15
2023-04-09T12:51:37.965Z,53.67
2023-04-09T12:54:06.272Z,50.48
2023-04-09T12:56:34.466Z,50.00
2023-04-09T12:59:03.973Z,48.87
2023-04-09T13:01:32.303Z,49.17
2023-04-09T13:04:00.720Z,49.99
2023-04-09T13:06:29.053Z,48.68
2023-04-09T13:08:57.222Z,47.60
2023-04-09T13:11:25.488Z,48.42
2023-04-09T13:13:53.992Z,48.99
2023-04-09T13:16:23.767Z,48.77
2023-04-09T13:18:52.524Z,48.22
2023-04-09T13:21:20.892Z,48.27
2023-04-09T13:23:49.071Z,48.12
2023-04-09T13:26:17.433Z,46.45
2023-04-09T13:28:45.641Z,47.19
2023-04-09T13:31:13.882Z,47.72
2023-04-09T13:33:43.501Z,47.47
2023-04-09T13:36:12.187Z,48.43
2023-04-09T13:38:40.649Z,47.99
2023-04-09T13:41:08.922Z,45.33
2023-04-09T13:43:37.724Z,44.95
2023-04-09T13:46:06.622Z,44.54
2023-04-09T13:48:34.855Z,44.08
2023-04-09T13:51:04.868Z,42.13
2023-04-09T13:53:33.130Z,43.30
2023-04-09T13:56:01.424Z,43.39
2023-04-09T13:58:29.690Z,42.73
2023-04-09T14:00:58.432Z,42.85
2023-04-09T14:03:26.797Z,43.87
2023-04-09T14:05:56.589Z,44.32
2023-04-09T14:08:26.272Z,43.26
2023-04-09T14:10:54.530Z,43.79
2023-04-09T14:13:23.164Z,42.73
2023-04-09T14:15:51.443Z,42.49
2023-04-09T14:18:19.662Z,42.50
2023-04-09T14:20:47.939Z,41.82
2023-04-09T14:23:16.386Z,42.94
2023-04-09T14:25:46.041Z,40.74
2023-04-09T14:28:14.252Z,42.79
2023-04-09T14:30:42.433Z,42.32
2023-04-09T14:33:10.738Z,42.90
2023-04-09T14:35:39.095Z,44.89
2023-04-09T14:38:07.749Z,44.86
2023-04-09T14:40:37.354Z,43.29
2023-04-09T14:43:06.889Z,43.77
2023-04-09T14:45:35.158Z,45.00
2023-04-09T14:48:03.529Z,45.02
2023-04-09T14:50:33.915Z,43.89
2023-04-09T14:53:02.394Z,44.27
2023-04-09T14:55:30.946Z,43.46
2023-04-09T14:58:01.553Z,42.99
2023-04-09T15:00:31.436Z,43.25
2023-04-09T15:03:00.137Z,43.56
2023-04-09T15:05:28.436Z,43.91
2023-04-09T15:07:58.244Z,42.54
2023-04-09T15:10:26.494Z,42.20
2023-04-09T15:12:55.513Z,42.37
2023-04-09T15:15:23.883Z,40.69
2023-04-09T15:17:53.452Z,39.58
2023-04-09T15:20:21.894Z,39.58
2023-04-09T15:22:50.083Z,40.64
2023-04-09T15:25:18.324Z,39.82
2023-04-09T15:27:46.916Z,40.17
2023-04-09T15:30:15.123Z,39.75
2023-04-09T15:32:43.362Z,41.02
2023-04-09T15:35:14.341Z,41.31
2023-04-09T15:37:42.528Z,43.36
2023-04-09T15:40:12.086Z,44.33
2023-04-09T15:42:40.359Z,44.06
2023-04-09T15:45:10.740Z,44.89
2023-04-09T15:47:39.513Z,46.20
2023-04-09T15:50:09.804Z,46.21
2023-04-09T15:52:39.528Z,47.19
2023-04-09T15:55:09.147Z,46.88
2023-04-09T15:57:38.359Z,47.75
2023-04-09T16:00:10.557Z,48.41
2023-04-09T16:03:04.341Z,47.80
2023-04-09T16:05:32.512Z,45.61
2023-04-09T16:08:03.559Z,44.46
2023-04-09T16:10:32.109Z,44.02
2023-04-09T16:13:00.330Z,44.94
2023-04-09T16:15:28.598Z,44.67
2023-04-09T16:17:56.939Z,44.39
2023-04-09T16:20:25.297Z,44.32
2023-04-09T16:22:53.855Z,44.27
2023-04-09T16:25:24.493Z,44.28
2023-04-09T16:27:53.078Z,44.36
2023-04-09T16:30:27.575Z,43.44
2023-04-09T16:32:56.541Z,43.26
2023-04-09T16:35:25.011Z,44.21
2023-04-09T16:37:53.318Z,43.79
2023-04-09T16:40:24.413Z,43.63
2023-04-09T16:42:52.672Z,44.22
2023-04-09T16:45:20.981Z,43.77
2023-04-09T16:47:51.411Z,44.74
2023-04-09T16:50:20.991Z,44.06
2023-04-09T16:52:49.344Z,44.98
2023-04-09T16:55:17.730Z,43.71
2023-04-09T16:57:47.297Z,43.43
2023-04-09T17:00:17.465Z,42.82
2023-04-09T17:02:46.268Z,43.27
2023-04-09T17:05:15.978Z,43.00
2023-04-09T17:07:44.564Z,43.65
2023-04-09T17:10:13.074Z,44.33
2023-04-09T17:12:42.078Z,43.20
2023-04-09T17:15:13.111Z,43.26
2023-04-09T17:17:41.409Z,43.64
2023-04-09T17:20:14.156Z,44.34
2023-04-09T17:22:42.329Z,45.13
2023-04-09T17:25:11.086Z,45.79
2023-04-09T17:27:39.214Z,45.55
2023-04-09T17:30:08.817Z,46.26
2023-04-09T17:32:39.310Z,47.21
2023-04-09T17:35:08.805Z,47.76
2023-04-09T17:37:38.130Z,48.12
2023-04-09T17:40:08.045Z,48.93
2023-04-09T17:42:36.195Z,49.82
2023-04-09T17:45:05.672Z,50.88
2023-04-09T17:47:33.877Z,51.24
2023-04-09T17:50:04.374Z,51.40
2023-04-09T17:52:36.689Z,51.22
2023-04-09T17:55:08.019Z,51.59
2023-04-09T17:57:36.715Z,52.09
2023-04-09T18:00:06.094Z,51.56
2023-04-09T18:02:34.604Z,52.18
2023-04-09T18:05:07.260Z,54.01
2023-04-09T18:07:35.952Z,54.32
2023-04-09T18:10:05.482Z,54.72
2023-04-09T18:12:34.221Z,55.41
2023-04-09T18:15:04.223Z,55.44
2023-04-09T18:17:32.485Z,55.70
2023-04-09T18:20:00.823Z,56.26
2023-04-09T18:22:30.738Z,55.96
2023-04-09T18:24:58.946Z,56.47
2023-04-09T18:27:27.139Z,57.01
2023-04-09T18:29:55.910Z,57.52
2023-04-09T18:32:25.255Z,58.18
2023-04-09T18:34:53.570Z,58.99
2023-04-09T18:37:22.521Z,58.63
2023-04-09T18:39:52.057Z,60.43
2023-04-09T18:42:20.269Z,60.71
2023-04-09T18:44:48.767Z,60.55
2023-04-09T18:47:17.009Z,61.69
2023-04-09T18:49:45.209Z,60.99
2023-04-09T18:52:13.384Z,62.07
2023-04-09T18:54:41.596Z,62.27
2023-04-09T18:57:11.197Z,63.02
2023-04-09T18:59:40.361Z,62.20
2023-04-09T19:02:08.635Z,62.13
2023-04-09T19:04:39.700Z,62.51
2023-04-09T19:07:08.790Z,62.88
2023-04-09T19:09:37.416Z,62.58
2023-04-09T19:12:06.563Z,62.14
2023-04-09T19:14:36.488Z,63.09
2023-04-09T19:17:04.701Z,63.10
2023-04-09T19:19:33.233Z,63.92
2023-04-09T19:22:01.695Z,64.09
2023-04-09T19:24:30.037Z,64.36
2023-04-09T19:26:59.458Z,64.43
2023-04-09T19:29:27.643Z,64.97
2023-04-09T19:31:57.247Z,65.50
2023-04-09T19:34:25.548Z,65.02
2023-04-09T19:36:53.689Z,65.62
2023-04-09T19:39:21.999Z,65.68
2023-04-09T19:41:50.298Z,66.09
2023-04-09T19:44:18.469Z,66.44
2023-04-09T19:46:46.680Z,66.37
2023-04-09T19:49:17.591Z,66.71
2023-04-09T19:51:45.782Z,66.32
2023-04-09T19:54:15.225Z,66.56
2023-04-09T19:56:43.598Z,66.79
2023-04-09T19:59:11.784Z,67.25
2023-04-09T20:01:40.040Z,67.19
2023-04-09T20:04:14.347Z,66.86
2023-04-09T20:06:48.495Z,67.32
2023-04-09T20:09:18.144Z,67.38
2023-04-09T20:11:46.579Z,67.49
2023-04-09T20:14:14.820Z,67.20
2023-04-09T20:16:43.030Z,67.41
2023-04-09T20:19:11.244Z,67.60
2023-04-09T20:21:39.453Z,67.38
2023-04-09T20:24:09.141Z,67.77
2023-04-09T20:26:37.388Z,68.52
2023-04-09T20:29:06.381Z,68.12
2023-04-09T20:31:36.108Z,68.56
2023-04-09T20:34:04.334Z,68.55
2023-04-09T20:36:32.503Z,68.63
2023-04-09T20:39:00.717Z,68.49
2023-04-09T20:41:30.607Z,68.43
2023-04-09T20:43:58.775Z,68.65
2023-04-09T20:46:27.098Z,68.64
2023-04-09T20:48:56.149Z,69.21
2023-04-09T20:51:24.773Z,69.43
2023-04-09T20:53:53.067Z,70.03
2023-04-09T20:56:21.233Z,70.44
2023-04-09T20:58:50.840Z,70.95
2023-04-09T21:01:19.865Z,71.15
2023-04-09T21:03:48.166Z,70.99
2023-04-09T21:06:17.520Z,71.47
2023-04-09T21:08:45.767Z,72.02
2023-04-09T21:11:14.879Z,72.06
2023-04-09T21:13:53.852Z,72.53
2023-04-09T21:16:26.050Z,72.36
2023-04-09T21:18:54.517Z,72.50
2023-04-09T21:21:23.398Z,72.31
2023-04-09T21:23:51.617Z,72.04
2023-04-09T21:26:19.816Z,72.48
2023-04-09T21:28:50.555Z,71.67
2023-04-09T21:31:18.970Z,72.50
2023-04-09T21:33:48.527Z,72.17
2023-04-09T21:36:16.764Z,72.51
2023-04-09T21:38:44.958Z,73.35
2023-04-09T21:41:13.112Z,73.65
2023-04-09T21:43:41.845Z,73.34
2023-04-09T21:46:10.109Z,72.88
2023-04-09T21:48:39.499Z,73.13
2023-04-09T21:51:12.188Z,72.89
2023-04-09T21:53:40.466Z,74.67
2023-04-09T21:56:09.441Z,74.20
2023-04-09T21:58:37.633Z,74.69
2023-04-09T22:01:11.005Z,74.31
2023-04-09T22:03:51.934Z,74.64
2023-04-09T22:06:21.492Z,74.69
2023-04-09T22:08:56.309Z,73.30
2023-04-09T22:11:28.393Z,72.24
2023-04-09T22:13:58.054Z,73.49
2023-04-09T22:16:27.950Z,74.10
2023-04-09T22:18:56.705Z,73.55
2023-04-09T22:21:27.635Z,73.19
2023-04-09T22:23:55.948Z,73.99
2023-04-09T22:26:24.228Z,75.68
2023-04-09T22:28:52.705Z,76.73
2023-04-09T22:31:21.555Z,77.47
2023-04-09T22:33:49.765Z,76.32
2023-04-09T22:36:17.947Z,76.28
2023-04-09T22:38:47.483Z,75.33
2023-04-09T22:41:17.417Z,76.33
2023-04-09T22:43:45.648Z,74.98
2023-04-09T22:46:13.888Z,73.89
2023-04-09T22:48:58.903Z,74.91
2023-04-09T22:51:30.736Z,74.94
2023-04-09T22:54:00.377Z,75.04
2023-04-09T22:56:28.724Z,75.94
2023-04-09T22:58:56.922Z,76.34
2023-04-09T23:01:25.242Z,77.65
2023-04-09T23:03:53.488Z,76.99
2023-04-09T23:06:22.329Z,77.61
2023-04-09T23:08:50.650Z,77.05
2023-04-09T23:11:20.985Z,77.45
2023-04-09T23:13:49.314Z,77.09
2023-04-09T23:16:17.595Z,77.22
2023-04-09T23:18:46.037Z,74.94
2023-04-09T23:21:14.212Z,74.68
2023-04-09T23:23:42.360Z,76.08
2023-04-09T23:26:10.509Z,74.56
2023-04-09T23:28:40.057Z,75.76
2023-04-09T23:31:08.502Z,75.67
2023-04-09T23:33:36.771Z,76.81
2023-04-09T23:36:05.995Z,77.72
2023-04-09T23:38:34.246Z,77.96
2023-04-09T23:41:02.471Z,77.71
2023-04-09T23:43:30.649Z,79.51
2023-04-09T23:46:00.167Z,80.72
2023-04-09T23:48:29.985Z,80.41
2023-04-09T23:50:59.578Z,79.83
2023-04-09T23:53:27.756Z,78.70
2023-04-09T23:55:55.873Z,78.90
2023-04-09T23:58:24.107Z,79.47
